Have a Safe July 4th! 

Flight Track Log - Related Links

Times and Time Zones

All times are in EDT time to prevent confusion due to time zone crossing. See the CHQ3021 flight status page for this flight to view local times or setup timezone preferences in your user account.

Time Position Orientation Groundspeed Altitude Reporting Facility
EDT Latitude Longitude Course Direction KTS MPH feet Rate Location/Type
Mon 11:45:41 AM 40.8500 -73.9333 270° West 195 224 3,200  Level New York TRACON
Mon 11:46:41 AM 40.8833 -73.9833 311° West 219 252 5,000 1,800 Climbing New York TRACON
Mon 11:47:41 AM 40.8667 -74.0667 255° West 236 272 6,800 2,050 Climbing New York TRACON
Mon 11:48:00 AM 40.6363 -74.2759 242° Southwest  Level FlightAware Approximate
Mon 11:48:41 AM 40.8500 -74.1500 255° West 241 277 9,100  Level New York TRACON
Mon 11:49:00 AM 40.5969 -74.3760 246° West  Level FlightAware Approximate
Mon 11:49:41 AM 40.8000 -74.2333 232° Southwest 289 333 10,200  Level New York TRACON
Mon 11:50:00 AM 40.5625 -74.4792 246° West  Level FlightAware Approximate
Mon 11:50:41 AM 40.7500 -74.3333 237° Southwest 318 366 11,600  Level New York TRACON
Mon 11:51:00 AM 40.5333 -74.5838 270° West  Level FlightAware Approximate
Mon 11:52:52 AM 40.6519 -74.5239 236° Southwest 343 395 14,600  Level New York Center
Mon 11:53:53 AM 40.5942 -74.6356 236° Southwest 343 395 16,200 1,438 Climbing New York Center
Mon 11:54:53 AM 40.5433 -74.7228 233° Southwest 343 395 17,500 1,300 Climbing New York Center
Mon 11:55:53 AM 40.4817 -74.8175 229° Southwest 348 400 18,800 1,373 Climbing New York Center
Mon 11:56:51 AM 40.4222 -74.9147 231° Southwest 348 400 20,200 1,438 Climbing New York Center
Mon 11:57:54 AM 40.3647 -75.0067 231° Southwest 338 389 21,700 1,450 Climbing New York Center
Mon 11:58:51 AM 40.3050 -75.1011 230° Southwest 338 389 23,100 1,373 Climbing New York Center
Mon 11:59:52 AM 40.2475 -75.1925 231° Southwest 338 389 24,400 1,131 Climbing New York Center
Mon 12:00:53 PM 40.1917 -75.2897 233° Southwest 338 389 25,400 934 Climbing New York Center
Mon 12:01:54 PM 40.1297 -75.3806 228° Southwest 338 389 26,300 915 Climbing New York Center
Mon 12:02:51 PM 40.0656 -75.4742 228° Southwest 344 396 27,200 966 Climbing New York Center
Mon 12:03:52 PM 39.9994 -75.5644 226° Southwest 349 402 28,200 950 Climbing New York Center
Mon 12:04:51 PM 39.9331 -75.6572 227° Southwest 349 402 29,100 958 Climbing New York Center
Mon 12:05:51 PM 39.8706 -75.7531 230° Southwest 354 407 30,100 942 Climbing New York Center
Mon 12:06:52 PM 39.8081 -75.8539 231° Southwest 354 407 31,000 893 Climbing New York Center
Mon 12:07:52 PM 39.7433 -75.9519 229° Southwest 354 407 31,900 882 Climbing New York Center
Mon 12:10:16 PM 39.5892 -76.1947 231° Southwest 365 420 34,000 615 Climbing Washington Center
Mon 12:11:17 PM 39.5219 -76.2964 229° Southwest 377 434 34,000  Level Washington Center
Mon 12:12:16 PM 39.4525 -76.4058 231° Southwest 382 440 34,000  Level Washington Center
Mon 12:13:17 PM 39.3744 -76.5233 229° Southwest 394 453 34,000  Level Washington Center
Mon 12:14:15 PM 39.3050 -76.6322 231° Southwest 399 459 34,000  Level Washington Center
Mon 12:15:16 PM 39.2372 -76.7411 231° Southwest 399 459 34,000  Level Washington Center
Mon 12:16:17 PM 39.1675 -76.8472 230° Southwest 399 459 34,000  Level Washington Center
Mon 12:17:15 PM 39.0994 -76.9556 231° Southwest 399 459 34,000  Level Washington Center
Mon 12:18:15 PM 39.0253 -77.0558 226° Southwest 399 459 34,000  Level Washington Center
Mon 12:19:15 PM 38.9428 -77.1503 222° Southwest 394 453 34,000  Level Washington Center
Mon 12:20:16 PM 38.8583 -77.2417 220° Southwest 399 459 34,000  Level Washington Center
Mon 12:21:16 PM 38.7758 -77.3306 220° Southwest 399 459 34,000  Level Washington Center
Mon 12:22:17 PM 38.6889 -77.4242 220° Southwest 399 459 34,000  Level Washington Center
Mon 12:23:15 PM 38.6211 -77.4997 221° Southwest 404 465 34,000  Level Washington Center
Mon 12:24:16 PM 38.5297 -77.6008 221° Southwest 404 465 34,000  Level Washington Center
Mon 12:25:17 PM 38.4447 -77.6939 221° Southwest 404 465 34,000  Level Washington Center
Mon 12:26:17 PM 38.3575 -77.7867 220° Southwest 404 465 34,000  Level Washington Center
Mon 12:27:16 PM 38.2767 -77.8769 221° Southwest 404 465 34,000  Level Washington Center
Mon 12:28:15 PM 38.1894 -77.9694 220° Southwest 404 465 34,000  Level Washington Center
Mon 12:29:16 PM 38.1042 -78.0617 220° Southwest 409 471 34,000  Level Washington Center
Mon 12:30:16 PM 38.0103 -78.1586 219° Southwest 409 471 34,000  Level Washington Center
Mon 12:31:17 PM 37.9478 -78.2539 230° Southwest 397 457 34,000  Level Washington Center
Mon 12:32:16 PM 37.8744 -78.3619 229° Southwest 403 464 34,000  Level Washington Center
Mon 12:33:16 PM 37.7989 -78.4642 227° Southwest 403 464 34,000  Level Washington Center
Mon 12:34:16 PM 37.7189 -78.5819 229° Southwest 403 464 34,000  Level Washington Center
Mon 12:35:16 PM 37.6453 -78.6867 228° Southwest 403 464 34,000  Level Washington Center
Mon 12:36:16 PM 37.5717 -78.7911 228° Southwest 403 464 34,000  Level Washington Center
Mon 12:37:17 PM 37.4978 -78.8953 228° Southwest 403 464 34,000  Level Washington Center
Mon 12:38:15 PM 37.4283 -78.9917 228° Southwest 403 464 34,000 -102 Level Washington Center
Mon 12:39:15 PM 37.3525 -79.0956 227° Southwest 403 464 33,800 -689 Descending Washington Center
Mon 12:40:17 PM 37.2764 -79.2017 228° Southwest 403 464 32,600 -885 Descending Washington Center
Mon 12:41:17 PM 37.1903 -79.2889 219° Southwest 403 464 32,000 -305 Descending Washington Center
Mon 12:42:15 PM 37.0981 -79.3650 213° Southwest 403 464 32,000  Level Washington Center
Mon 12:43:15 PM 36.9931 -79.4508 213° Southwest 415 478 32,000  Level Washington Center
Mon 12:44:16 PM 36.8967 -79.5319 214° Southwest 415 478 32,000  Level Washington Center
Mon 12:45:16 PM 36.7981 -79.6125 213° Southwest 427 491 32,000 -50 Level Washington Center
Mon 12:46:16 PM 36.6969 -79.6953 213° Southwest 432 497 31,900 -1,240 Descending Washington Center
Mon 12:47:17 PM 36.6133 -79.7633 213° Southwest 425 489 29,500 -2,571 Descending Washington Center
Mon 12:48:15 PM 36.5253 -79.8361 214° Southwest 408 470 26,800 -3,068 Descending Washington Center
Mon 12:49:30 PM 36.3944 -79.9378 212° Southwest 412 474 22,700 -2,133 Descending Atlanta Center
Mon 12:50:30 PM 36.3011 -80.0147 214° Southwest 417 480 22,000 -350 Descending Atlanta Center
Mon 12:51:30 PM 36.2075 -80.0939 214° Southwest 412 474 22,000 -800 Level Atlanta Center
Mon 12:52:30 PM 36.1142 -80.1731 214° Southwest 412 474 20,400 -1,750 Descending Atlanta Center
Mon 12:53:30 PM 36.0308 -80.2439 215° Southwest 412 474 18,500 -2,400 Descending Atlanta Center
Mon 12:54:25 PM 35.9456 -80.3222 217° Southwest 375 432 15,800 -2,750 Descending Atlanta Center
Mon 12:55:30 PM 35.8561 -80.3981 215° Southwest 383 441 13,000 -1,527 Descending Atlanta Center
Mon 12:56:15 PM 35.8075 -80.4411 216° Southwest 286 329 13,000 -396 Level Atlanta Center
Mon 12:57:16 PM 35.7422 -80.4953 214° Southwest 265 305 12,300 -992 Descending Atlanta Center
Mon 12:58:16 PM 35.6769 -80.5442 211° Southwest 272 313 11,000 -985 Descending Atlanta Center
Mon 12:59:30 PM 35.6011 -80.5958 209° Southwest 271 312 10,100 -1,219 Descending Atlanta Center
Mon 01:00:24 PM 35.5419 -80.6442 214° Southwest 258 297 8,400 -1,603 Descending Atlanta Center
Mon 01:01:26 PM 35.4828 -80.6875 211° Southwest 248 285 7,000 -1,667 Descending Atlanta Center
Mon 01:02:30 PM 35.4169 -80.7283 207° Southwest 257 296 4,900 -1,969 Descending Atlanta Center

Login

Don't have an account? Register now (free) for customized features, flight alerts, and more!